Skip Navigation Links Skip Navigation Links

Current Weather

Robert J. Miller Air Park, Toms River, N.J.

For information only: do not use for flight planning or navigation.
Latest weather
Observation time Thursday, November 14, 2019 7:56 PM EST
Local time Thursday, November 14, 2019 8:09 PM EST
Flight conditions Visual Meteorological Conditions
Winds
Wind speed calm
Visibility 10 mi.
Sky condition
Ceiling unlimited
Cloud layer scattered clouds 4,700 ft.
Temperature 30°F
Dewpoint 29°F
Altimeter 30.32 in.Hg
Derived measurements
Relative humidity 96%
Wind chill 30°F
Density altitude -2268 ft.
Sea-level pressure 30.33 in.Hg
Remarks
Fully automated report.
Automated weather observing station with precipitation discriminator.
Freezing rain sensor not operating.
METAR KMJX 150056Z AUTO 00000KT 10SM SCT047 M01/M02 A3032 RMK AO2 SLP271 T10111017 FZRANO

Settings

Location code

InnerDrive.Weather 4.0.6770.0 Release CLR 4.0.30319.42000
Copyright ©2018 Inner Drive Technology. All rights reserved. Portions Copyright ©1986-2018 David Braverman.

Find weather

Site navigation


Skip Navigation Links

Place info

Page info

PayPal - The safer, easier way to pay online!

Return home.

Copyright ©2019 Inner Drive Technology. Purveyors of fine, hand-crafted computer software. Page printed 2019-11-15T01:09:57 UTC.